createdAt,value
2023-08-20T00:00:40.009Z,1016.57
2023-08-20T00:01:44.550Z,1016.54
2023-08-20T00:02:48.881Z,1016.53
2023-08-20T00:03:53.394Z,1016.50
2023-08-20T00:05:11.816Z,1016.49
2023-08-20T00:06:21.465Z,1016.48
2023-08-20T00:07:24.613Z,1016.50
2023-08-20T00:08:29.048Z,1016.51
2023-08-20T00:09:33.572Z,1016.50
2023-08-20T00:10:52.011Z,1016.57
2023-08-20T00:11:55.411Z,1016.56
2023-08-20T00:12:59.761Z,1016.57
2023-08-20T00:14:04.207Z,1016.57
2023-08-20T00:15:08.746Z,1016.56
2023-08-20T00:16:27.312Z,1016.55
2023-08-20T00:17:30.965Z,1016.57
2023-08-20T00:18:38.074Z,1016.57
2023-08-20T00:19:39.765Z,1016.57
2023-08-20T00:20:44.291Z,1016.55
2023-08-20T00:21:48.662Z,1016.54
2023-08-20T00:22:53.121Z,1016.57
2023-08-20T00:23:57.687Z,1016.56
2023-08-20T00:25:02.016Z,1016.57
2023-08-20T00:26:06.558Z,1016.55
2023-08-20T00:27:24.904Z,1016.55
2023-08-20T00:28:28.364Z,1016.53
2023-08-20T00:29:32.702Z,1016.52
2023-08-20T00:30:40.179Z,1016.51
2023-08-20T00:31:43.736Z,1016.52
2023-08-20T00:32:48.259Z,1016.55
2023-08-20T00:34:04.790Z,1016.57
2023-08-20T00:34:57.112Z,1016.58
2023-08-20T00:36:15.601Z,1016.60
2023-08-20T00:37:18.921Z,1016.64
2023-08-20T00:38:23.284Z,1016.64
2023-08-20T00:39:30.741Z,1016.66
2023-08-20T00:40:34.342Z,1016.64
2023-08-20T00:41:38.869Z,1016.66
2023-08-20T00:42:43.315Z,1016.65
2023-08-20T00:43:47.659Z,1016.65
2023-08-20T00:44:52.154Z,1016.65
2023-08-20T00:45:56.784Z,1016.62
2023-08-20T00:47:01.162Z,1016.61
2023-08-20T00:48:05.644Z,1016.60
2023-08-20T00:49:10.169Z,1016.59
2023-08-20T00:50:14.515Z,1016.57
2023-08-20T00:51:19.091Z,1016.57
2023-08-20T00:52:23.570Z,1016.59
2023-08-20T00:53:28.800Z,1016.62
2023-08-20T00:54:32.438Z,1016.65
2023-08-20T00:55:36.943Z,1016.67
2023-08-20T00:56:41.416Z,1016.68
2023-08-20T00:57:45.951Z,1016.70
2023-08-20T00:58:50.344Z,1016.73
2023-08-20T00:59:54.697Z,1016.73
2023-08-20T01:00:59.155Z,1016.74
2023-08-20T01:02:03.647Z,1016.76
2023-08-20T01:03:08.172Z,1016.77
2023-08-20T01:04:12.580Z,1016.78
2023-08-20T01:05:17.053Z,1016.78
2023-08-20T01:06:21.513Z,1016.80
2023-08-20T01:07:25.922Z,1016.82
2023-08-20T01:08:30.444Z,1016.83
2023-08-20T01:09:34.921Z,1016.83
2023-08-20T01:10:39.275Z,1016.85
2023-08-20T01:11:46.821Z,1016.84
2023-08-20T01:12:50.335Z,1016.83
2023-08-20T01:13:54.813Z,1016.82
2023-08-20T01:14:59.269Z,1016.83
2023-08-20T01:16:03.798Z,1016.80
2023-08-20T01:17:22.248Z,1016.78
2023-08-20T01:18:25.760Z,1016.79
2023-08-20T01:19:30.159Z,1016.78
2023-08-20T01:20:34.680Z,1016.80
2023-08-20T01:21:39.062Z,1016.80
2023-08-20T01:22:43.435Z,1016.82
2023-08-20T01:23:47.954Z,1016.82
2023-08-20T01:24:52.363Z,1016.82
2023-08-20T01:25:56.876Z,1016.82
2023-08-20T01:27:04.257Z,1016.82
2023-08-20T01:28:07.861Z,1016.84
2023-08-20T01:29:12.269Z,1016.82
2023-08-20T01:30:16.779Z,1016.82
2023-08-20T01:31:21.207Z,1016.81
2023-08-20T01:32:25.674Z,1016.81
2023-08-20T01:33:30.201Z,1016.80
2023-08-20T01:34:34.563Z,1016.80
2023-08-20T01:35:39.106Z,1016.81
2023-08-20T01:36:43.570Z,1016.83
2023-08-20T01:37:47.923Z,1016.84
2023-08-20T01:38:52.394Z,1016.90
2023-08-20T01:40:10.940Z,1016.91
2023-08-20T01:41:14.511Z,1016.94
2023-08-20T01:42:18.838Z,1016.94
2023-08-20T01:43:23.315Z,1016.98
2023-08-20T01:44:27.781Z,1016.97
2023-08-20T01:45:32.147Z,1016.98
2023-08-20T01:46:36.631Z,1016.97
2023-08-20T01:47:41.113Z,1017.00
2023-08-20T01:48:45.441Z,1017.03
2023-08-20T01:49:49.883Z,1017.05
2023-08-20T01:50:54.385Z,1017.06
2023-08-20T01:51:58.844Z,1017.09
2023-08-20T01:53:03.308Z,1017.11
2023-08-20T01:54:07.770Z,1017.14
2023-08-20T01:55:12.369Z,1017.13
2023-08-20T01:56:16.869Z,1017.14
2023-08-20T01:57:21.389Z,1017.17
2023-08-20T01:58:25.692Z,1017.17
2023-08-20T01:59:30.208Z,1017.16
2023-08-20T02:00:34.629Z,1017.20
2023-08-20T02:01:39.100Z,1017.19
2023-08-20T02:02:43.566Z,1017.22
2023-08-20T02:03:47.982Z,1017.24
2023-08-20T02:04:55.495Z,1017.25
2023-08-20T02:05:58.931Z,1017.28
2023-08-20T02:07:03.505Z,1017.28
2023-08-20T02:08:07.850Z,1017.30
2023-08-20T02:09:26.397Z,1017.33
2023-08-20T02:10:29.649Z,1017.35
2023-08-20T02:11:34.028Z,1017.38
2023-08-20T02:12:38.528Z,1017.40
2023-08-20T02:13:43.047Z,1017.43
2023-08-20T02:14:47.395Z,1017.44
2023-08-20T02:15:51.919Z,1017.44
2023-08-20T02:16:56.441Z,1017.47
2023-08-20T02:18:00.977Z,1017.49
2023-08-20T02:19:05.303Z,1017.52
2023-08-20T02:20:09.771Z,1017.52
2023-08-20T02:21:14.256Z,1017.53
2023-08-20T02:22:18.603Z,1017.53
2023-08-20T02:23:29.153Z,1017.54
2023-08-20T02:24:32.227Z,1017.53
2023-08-20T02:25:36.676Z,1017.57
2023-08-20T02:26:41.028Z,1017.57
2023-08-20T02:27:45.456Z,1017.55
2023-08-20T02:28:49.867Z,1017.54
2023-08-20T02:29:54.365Z,1017.56
2023-08-20T02:30:59.018Z,1017.57
2023-08-20T02:32:03.187Z,1017.57
2023-08-20T02:33:07.715Z,1017.59
2023-08-20T02:34:11.987Z,1017.63
2023-08-20T02:35:16.435Z,1017.66
2023-08-20T02:36:20.874Z,1017.68
2023-08-20T02:37:25.269Z,1017.70
2023-08-20T02:38:29.795Z,1017.72
2023-08-20T02:39:34.218Z,1017.73
2023-08-20T02:40:38.780Z,1017.74
2023-08-20T02:41:43.200Z,1017.76
2023-08-20T02:42:47.659Z,1017.77
2023-08-20T02:43:52.136Z,1017.78
2023-08-20T02:44:56.669Z,1017.80
2023-08-20T02:46:01.118Z,1017.80
2023-08-20T02:47:05.622Z,1017.80
2023-08-20T02:48:16.133Z,1017.79
2023-08-20T02:49:19.180Z,1017.76
2023-08-20T02:50:23.640Z,1017.76
2023-08-20T02:51:28.068Z,1017.75
2023-08-20T02:52:32.416Z,1017.75
2023-08-20T02:53:50.998Z,1017.75
2023-08-20T02:54:54.599Z,1017.73
2023-08-20T02:55:58.847Z,1017.72
2023-08-20T02:57:06.343Z,1017.72
2023-08-20T02:58:09.904Z,1017.71
2023-08-20T02:59:14.332Z,1017.70
2023-08-20T03:00:18.654Z,1017.70
2023-08-20T03:01:23.246Z,1017.68
2023-08-20T03:02:27.567Z,1017.68
2023-08-20T03:03:32.047Z,1017.68
2023-08-20T03:04:36.560Z,1017.68
2023-08-20T03:05:40.912Z,1017.67
2023-08-20T03:06:45.240Z,1017.69
2023-08-20T03:07:49.727Z,1017.67
2023-08-20T03:08:54.127Z,1017.67
2023-08-20T03:09:58.636Z,1017.68
2023-08-20T03:11:06.043Z,1017.67
2023-08-20T03:12:09.578Z,1017.68
2023-08-20T03:13:14.029Z,1017.66
2023-08-20T03:14:21.442Z,1017.65
2023-08-20T03:15:25.012Z,1017.63
2023-08-20T03:16:29.458Z,1017.64
2023-08-20T03:17:34.231Z,1017.64
2023-08-20T03:18:38.210Z,1017.64
2023-08-20T03:19:42.602Z,1017.65
2023-08-20T03:20:47.147Z,1017.64
2023-08-20T03:21:51.536Z,1017.65
2023-08-20T03:22:56.075Z,1017.64
2023-08-20T03:24:00.489Z,1017.65
2023-08-20T03:25:07.886Z,1017.65
2023-08-20T03:26:11.457Z,1017.62
2023-08-20T03:27:15.858Z,1017.61
2023-08-20T03:28:20.288Z,1017.58
2023-08-20T03:29:24.752Z,1017.59
2023-08-20T03:30:29.209Z,1017.60
2023-08-20T03:31:33.735Z,1017.63
2023-08-20T03:32:38.149Z,1017.63
2023-08-20T03:33:42.579Z,1017.65
2023-08-20T03:34:47.012Z,1017.66
2023-08-20T03:35:51.353Z,1017.70
2023-08-20T03:36:55.890Z,1017.71
2023-08-20T03:38:00.293Z,1017.75
2023-08-20T03:39:04.682Z,1017.76
2023-08-20T03:40:09.156Z,1017.79
2023-08-20T03:41:13.657Z,1017.82
2023-08-20T03:42:18.088Z,1017.86
2023-08-20T03:43:25.605Z,1017.88
2023-08-20T03:44:29.305Z,1017.89
2023-08-20T03:45:33.718Z,1017.91
2023-08-20T03:46:38.008Z,1017.94
2023-08-20T03:47:42.494Z,1017.96
2023-08-20T03:48:46.995Z,1017.99
2023-08-20T03:49:51.455Z,1018.00
2023-08-20T03:50:55.886Z,1018.02
2023-08-20T03:52:00.204Z,1017.99
2023-08-20T03:53:04.795Z,1017.99
2023-08-20T03:54:09.098Z,1017.98
2023-08-20T03:55:13.662Z,1017.96
2023-08-20T03:56:18.045Z,1017.95
2023-08-20T03:57:22.386Z,1017.93
2023-08-20T03:58:26.811Z,1017.91
2023-08-20T03:59:31.364Z,1017.91
2023-08-20T04:00:35.811Z,1017.90
2023-08-20T04:01:40.289Z,1017.91
2023-08-20T04:02:44.741Z,1017.91
2023-08-20T04:03:49.140Z,1017.90
2023-08-20T04:04:53.508Z,1017.91
2023-08-20T04:05:57.895Z,1017.89
2023-08-20T04:07:02.414Z,1017.91
2023-08-20T04:08:06.847Z,1017.89
2023-08-20T04:09:11.231Z,1017.89
2023-08-20T04:10:15.746Z,1017.92
2023-08-20T04:11:20.183Z,1017.93
2023-08-20T04:12:24.723Z,1017.97
2023-08-20T04:13:29.034Z,1017.98
2023-08-20T04:14:33.552Z,1018.01
2023-08-20T04:15:38.088Z,1018.02
2023-08-20T04:16:42.447Z,1018.05
2023-08-20T04:17:46.859Z,1018.07
2023-08-20T04:18:51.204Z,1018.09
2023-08-20T04:19:55.810Z,1018.08
2023-08-20T04:21:00.137Z,1018.07
2023-08-20T04:22:04.588Z,1018.10
2023-08-20T04:23:08.989Z,1018.11
2023-08-20T04:24:13.509Z,1018.12
2023-08-20T04:25:17.802Z,1018.11
2023-08-20T04:26:22.171Z,1018.14
2023-08-20T04:27:26.706Z,1018.14
2023-08-20T04:28:31.119Z,1018.14
2023-08-20T04:29:38.563Z,1018.16
2023-08-20T04:30:41.973Z,1018.16
2023-08-20T04:31:46.548Z,1018.17
2023-08-20T04:32:50.934Z,1018.19
2023-08-20T04:33:55.256Z,1018.21
2023-08-20T04:34:59.737Z,1018.24
2023-08-20T04:36:04.194Z,1018.28
2023-08-20T04:37:08.671Z,1018.31
2023-08-20T04:38:19.096Z,1018.34
2023-08-20T04:39:22.263Z,1018.34
2023-08-20T04:40:26.652Z,1018.35
2023-08-20T04:41:31.127Z,1018.35
2023-08-20T04:42:35.552Z,1018.34
2023-08-20T04:43:39.941Z,1018.34
2023-08-20T04:44:44.379Z,1018.34
2023-08-20T04:45:48.823Z,1018.31
2023-08-20T04:46:53.194Z,1018.30
2023-08-20T04:48:11.583Z,1018.29
2023-08-20T04:49:20.961Z,1018.29
2023-08-20T04:50:23.984Z,1018.31
2023-08-20T04:51:28.375Z,1018.29
2023-08-20T04:52:38.832Z,1018.31
2023-08-20T04:53:41.911Z,1018.31
2023-08-20T04:54:52.367Z,1018.31
2023-08-20T04:55:55.404Z,1018.31
2023-08-20T04:56:59.815Z,1018.29
2023-08-20T04:58:04.237Z,1018.27
2023-08-20T04:59:11.644Z,1018.27
2023-08-20T05:00:15.335Z,1018.29
2023-08-20T05:01:22.767Z,1018.31
2023-08-20T05:02:27.854Z,1018.36
2023-08-20T05:03:30.772Z,1018.36
2023-08-20T05:04:35.197Z,1018.37
2023-08-20T05:05:39.604Z,1018.38
2023-08-20T05:06:44.036Z,1018.40
2023-08-20T05:07:48.479Z,1018.41
2023-08-20T05:08:52.923Z,1018.45
2023-08-20T05:09:57.294Z,1018.46
2023-08-20T05:11:01.838Z,1018.44
2023-08-20T05:12:06.333Z,1018.44
2023-08-20T05:13:10.651Z,1018.46
2023-08-20T05:14:15.113Z,1018.45
2023-08-20T05:15:22.566Z,1018.45
2023-08-20T05:16:26.103Z,1018.44
2023-08-20T05:17:30.689Z,1018.44
2023-08-20T05:18:34.921Z,1018.45
2023-08-20T05:19:39.438Z,1018.47
2023-08-20T05:20:43.906Z,1018.49
2023-08-20T05:21:48.346Z,1018.50
2023-08-20T05:22:52.767Z,1018.50
2023-08-20T05:23:57.231Z,1018.53
2023-08-20T05:25:01.692Z,1018.54
2023-08-20T05:26:12.125Z,1018.54
2023-08-20T05:27:15.161Z,1018.57
2023-08-20T05:28:19.625Z,1018.63
2023-08-20T05:29:24.058Z,1018.65
2023-08-20T05:30:28.510Z,1018.67
2023-08-20T05:31:32.919Z,1018.70
2023-08-20T05:32:37.594Z,1018.71
2023-08-20T05:33:41.729Z,1018.70
2023-08-20T05:34:46.114Z,1018.74
2023-08-20T05:35:50.497Z,1018.75
2023-08-20T05:36:55.040Z,1018.79
2023-08-20T05:37:59.516Z,1018.79
2023-08-20T05:39:18.096Z,1018.76
2023-08-20T05:40:21.638Z,1018.77
2023-08-20T05:41:25.972Z,1018.78
2023-08-20T05:42:30.442Z,1018.80
2023-08-20T05:43:34.895Z,1018.78
2023-08-20T05:44:39.389Z,1018.79
2023-08-20T05:45:43.747Z,1018.82
2023-08-20T05:46:48.247Z,1018.84
2023-08-20T05:47:52.856Z,1018.85
2023-08-20T05:49:00.095Z,1018.86
2023-08-20T05:50:17.625Z,1018.87
2023-08-20T05:51:20.847Z,1018.91
2023-08-20T05:52:25.273Z,1018.89
2023-08-20T05:53:32.765Z,1018.92
2023-08-20T05:54:36.423Z,1018.95
2023-08-20T05:55:40.784Z,1018.97
2023-08-20T05:56:45.153Z,1018.97
2023-08-20T05:57:49.540Z,1018.98
2023-08-20T05:58:54.047Z,1019.02
2023-08-20T05:59:58.530Z,1019.04
2023-08-20T06:01:02.996Z,1019.03
2023-08-20T06:02:07.371Z,1019.03
2023-08-20T06:03:11.869Z,1018.99
2023-08-20T06:04:16.263Z,1018.96
2023-08-20T06:05:20.722Z,1018.93
2023-08-20T06:06:25.167Z,1018.87
2023-08-20T06:07:35.571Z,1018.85
2023-08-20T06:08:38.698Z,1018.85
2023-08-20T06:09:43.092Z,1018.86
2023-08-20T06:10:47.605Z,1018.86
2023-08-20T06:11:52.017Z,1018.86
2023-08-20T06:13:10.513Z,1018.90
2023-08-20T06:14:13.929Z,1018.92
2023-08-20T06:15:18.324Z,1018.92
2023-08-20T06:16:22.878Z,1018.91
2023-08-20T06:17:27.169Z,1018.89
2023-08-20T06:18:31.593Z,1018.90
2023-08-20T06:19:36.545Z,1018.92
2023-08-20T06:20:40.566Z,1018.95
2023-08-20T06:21:44.959Z,1018.93
2023-08-20T06:24:17.009Z,1018.93
2023-08-20T06:25:21.394Z,1018.92
2023-08-20T06:26:25.769Z,1018.94
2023-08-20T06:27:30.265Z,1018.98
2023-08-20T06:28:34.692Z,1019.00
2023-08-20T06:29:39.173Z,1019.01
2023-08-20T06:30:43.638Z,1018.99
2023-08-20T06:31:48.094Z,1018.95
2023-08-20T06:32:52.513Z,1018.94
2023-08-20T06:33:56.832Z,1018.92
2023-08-20T06:35:01.375Z,1018.91
2023-08-20T06:36:05.792Z,1018.90
2023-08-20T06:37:10.181Z,1018.88
2023-08-20T06:38:14.621Z,1018.85
2023-08-20T06:39:19.102Z,1018.86
2023-08-20T06:40:23.494Z,1018.85
2023-08-20T06:41:27.878Z,1018.85
2023-08-20T06:42:32.333Z,1018.87
2023-08-20T06:43:36.754Z,1018.92
2023-08-20T06:44:44.273Z,1018.93
2023-08-20T06:45:47.905Z,1018.94
2023-08-20T06:46:52.339Z,1018.93
2023-08-20T06:47:56.673Z,1018.92
2023-08-20T06:49:01.061Z,1018.90
2023-08-20T06:50:05.485Z,1018.91
2023-08-20T06:51:09.870Z,1018.90
2023-08-20T06:52:14.228Z,1018.89
2023-08-20T06:53:18.738Z,1018.89
2023-08-20T06:54:23.069Z,1018.89
2023-08-20T06:55:27.423Z,1018.86
2023-08-20T06:56:46.825Z,1018.86
2023-08-20T06:57:49.439Z,1018.89
2023-08-20T06:58:53.957Z,1018.91
2023-08-20T06:59:58.417Z,1018.93
2023-08-20T07:01:02.857Z,1018.98
2023-08-20T07:02:07.389Z,1018.97
2023-08-20T07:03:11.875Z,1018.95
2023-08-20T07:04:16.242Z,1018.93
2023-08-20T07:05:20.651Z,1018.91
2023-08-20T07:06:25.001Z,1018.87
2023-08-20T07:07:29.451Z,1018.81
2023-08-20T07:08:33.861Z,1018.80
2023-08-20T07:09:38.249Z,1018.73
2023-08-20T07:10:42.665Z,1018.68
2023-08-20T07:11:48.630Z,1018.66
2023-08-20T07:12:51.475Z,1018.63
2023-08-20T07:13:55.936Z,1018.65
2023-08-20T07:15:00.292Z,1018.66
2023-08-20T07:16:04.736Z,1018.67
2023-08-20T07:17:09.131Z,1018.72
2023-08-20T07:18:13.578Z,1018.77
2023-08-20T07:19:18.028Z,1018.78
2023-08-20T07:20:22.367Z,1018.77
2023-08-20T07:21:26.902Z,1018.78
2023-08-20T07:22:31.268Z,1018.77
2023-08-20T07:23:35.746Z,1018.75
2023-08-20T07:24:40.166Z,1018.75
2023-08-20T07:27:12.266Z,1018.76
2023-08-20T07:28:16.592Z,1018.74
2023-08-20T07:29:35.058Z,1018.72
2023-08-20T07:30:38.296Z,1018.67
2023-08-20T07:31:42.693Z,1018.62
2023-08-20T07:32:47.109Z,1018.59
2023-08-20T07:33:51.492Z,1018.58
2023-08-20T07:34:55.953Z,1018.55
2023-08-20T07:36:00.308Z,1018.54
2023-08-20T07:37:04.758Z,1018.51
2023-08-20T07:38:09.258Z,1018.49
2023-08-20T07:39:18.651Z,1018.46
2023-08-20T07:40:18.128Z,1018.42
2023-08-20T07:41:22.623Z,1018.39
2023-08-20T07:42:27.059Z,1018.43
2023-08-20T07:43:31.425Z,1018.41
2023-08-20T07:44:35.903Z,1018.42
2023-08-20T07:45:40.376Z,1018.42
2023-08-20T07:46:44.754Z,1018.44
2023-08-20T07:47:49.283Z,1018.47
2023-08-20T07:48:53.608Z,1018.47
2023-08-20T07:49:58.048Z,1018.51
2023-08-20T07:51:02.440Z,1018.57
2023-08-20T07:52:06.862Z,1018.63
2023-08-20T07:53:25.510Z,1018.71
2023-08-20T07:54:28.958Z,1018.80
2023-08-20T07:55:33.363Z,1018.88
2023-08-20T07:56:37.712Z,1018.91
2023-08-20T07:57:42.062Z,1018.94
2023-08-20T07:58:46.590Z,1018.96
2023-08-20T07:59:51.040Z,1018.95
2023-08-20T08:00:55.613Z,1018.96
2023-08-20T08:01:59.896Z,1018.99
2023-08-20T08:03:04.448Z,1019.01
2023-08-20T08:04:08.952Z,1019.04
2023-08-20T08:05:13.248Z,1019.05
2023-08-20T08:06:17.783Z,1019.13
2023-08-20T08:07:22.195Z,1019.13
2023-08-20T08:08:26.724Z,1019.14
2023-08-20T08:09:31.080Z,1019.15
2023-08-20T08:10:35.594Z,1019.17
2023-08-20T08:11:40.077Z,1019.21
2023-08-20T08:12:44.449Z,1019.24
2023-08-20T08:13:48.861Z,1019.20
2023-08-20T08:15:07.421Z,1019.17
2023-08-20T08:16:10.742Z,1019.13
2023-08-20T08:17:15.018Z,1019.13
2023-08-20T08:18:19.551Z,1019.13
2023-08-20T08:19:23.971Z,1019.16
2023-08-20T08:20:28.317Z,1019.18
2023-08-20T08:21:32.789Z,1019.21
2023-08-20T08:22:37.156Z,1019.23
2023-08-20T08:23:41.589Z,1019.18
2023-08-20T08:24:46.086Z,1019.15
2023-08-20T08:25:50.580Z,1019.14
2023-08-20T08:26:54.975Z,1019.12
2023-08-20T08:28:00.913Z,1019.10
2023-08-20T08:29:03.753Z,1019.11
2023-08-20T08:30:08.165Z,1019.13
2023-08-20T08:31:12.724Z,1019.09
2023-08-20T08:32:16.982Z,1019.10
2023-08-20T08:33:21.538Z,1019.09
2023-08-20T08:34:26.021Z,1019.13
2023-08-20T08:35:30.338Z,1019.15
2023-08-20T08:36:34.730Z,1019.17
2023-08-20T08:37:39.144Z,1019.16
2023-08-20T08:38:43.652Z,1019.12
2023-08-20T08:39:48.024Z,1019.06
2023-08-20T08:40:52.431Z,1019.07
2023-08-20T08:41:56.953Z,1019.03
2023-08-20T08:43:01.282Z,1019.09
2023-08-20T08:44:05.729Z,1019.07
2023-08-20T08:45:10.172Z,1019.09
2023-08-20T08:46:14.609Z,1019.10
2023-08-20T08:47:19.068Z,1019.10
2023-08-20T08:48:23.541Z,1019.08
2023-08-20T08:49:27.987Z,1019.10
2023-08-20T08:50:32.419Z,1019.11
2023-08-20T08:51:36.788Z,1019.16
2023-08-20T08:52:41.230Z,1019.18
2023-08-20T08:53:45.668Z,1019.20
2023-08-20T08:54:50.158Z,1019.21
2023-08-20T08:55:54.516Z,1019.23
2023-08-20T08:56:58.955Z,1019.22
2023-08-20T08:58:03.468Z,1019.21
2023-08-20T08:59:07.886Z,1019.19
2023-08-20T09:00:15.403Z,1019.20
2023-08-20T09:01:19.048Z,1019.26
2023-08-20T09:02:23.504Z,1019.30
2023-08-20T09:03:27.916Z,1019.33
2023-08-20T09:04:32.331Z,1019.35
2023-08-20T09:05:36.784Z,1019.34
2023-08-20T09:06:41.147Z,1019.31
2023-08-20T09:07:45.664Z,1019.26
2023-08-20T09:08:50.016Z,1019.25
2023-08-20T09:09:54.439Z,1019.26
2023-08-20T09:10:58.864Z,1019.23
2023-08-20T09:12:03.282Z,1019.25
2023-08-20T09:13:07.686Z,1019.23
2023-08-20T09:14:12.197Z,1019.25
2023-08-20T09:15:16.575Z,1019.29
2023-08-20T09:16:20.997Z,1019.27
2023-08-20T09:17:25.431Z,1019.28
2023-08-20T09:18:29.841Z,1019.24
2023-08-20T09:19:34.463Z,1019.25
2023-08-20T09:20:38.740Z,1019.26
2023-08-20T09:21:43.123Z,1019.28
2023-08-20T09:22:47.548Z,1019.26
2023-08-20T09:23:51.981Z,1019.21
2023-08-20T09:24:56.405Z,1019.15
2023-08-20T09:26:03.955Z,1019.13
2023-08-20T09:27:07.660Z,1019.09
2023-08-20T09:28:12.020Z,1019.10
2023-08-20T09:29:16.522Z,1019.14
2023-08-20T09:30:21.011Z,1019.19
2023-08-20T09:31:25.375Z,1019.20
2023-08-20T09:32:29.825Z,1019.21
2023-08-20T09:33:34.214Z,1019.21
2023-08-20T09:34:38.819Z,1019.18
2023-08-20T09:35:43.236Z,1019.22
2023-08-20T09:36:47.659Z,1019.18
2023-08-20T09:37:52.063Z,1019.18
2023-08-20T09:38:56.529Z,1019.17
2023-08-20T09:40:00.985Z,1019.17
2023-08-20T09:41:05.413Z,1019.27
2023-08-20T09:42:09.829Z,1019.31
2023-08-20T09:43:14.364Z,1019.34
2023-08-20T09:44:18.707Z,1019.31
2023-08-20T09:45:23.279Z,1019.35
2023-08-20T09:46:27.741Z,1019.39
2023-08-20T09:47:35.489Z,1019.35
2023-08-20T09:48:38.755Z,1019.39
2023-08-20T09:49:43.157Z,1019.38
2023-08-20T09:50:47.575Z,1019.38
2023-08-20T09:51:52.105Z,1019.40
2023-08-20T09:52:57.364Z,1019.42
2023-08-20T09:54:01.429Z,1019.38
2023-08-20T09:55:05.819Z,1019.45
2023-08-20T09:56:10.221Z,1019.50
2023-08-20T09:57:14.750Z,1019.51
2023-08-20T09:58:19.214Z,1019.51
2023-08-20T09:59:23.596Z,1019.53
2023-08-20T10:00:28.097Z,1019.48
2023-08-20T10:01:32.501Z,1019.50
2023-08-20T10:02:36.922Z,1019.50
2023-08-20T10:03:41.319Z,1019.52
2023-08-20T10:04:45.816Z,1019.50
2023-08-20T10:05:50.172Z,1019.51
2023-08-20T10:06:54.656Z,1019.53
2023-08-20T10:07:59.039Z,1019.54
2023-08-20T10:09:03.443Z,1019.53
2023-08-20T10:10:07.995Z,1019.52
2023-08-20T10:11:12.486Z,1019.57
2023-08-20T10:12:16.945Z,1019.57
2023-08-20T10:13:21.408Z,1019.56
2023-08-20T10:14:25.872Z,1019.57
2023-08-20T10:15:30.303Z,1019.59
2023-08-20T10:16:34.733Z,1019.51
2023-08-20T10:17:39.759Z,1019.48
2023-08-20T10:18:43.663Z,1019.54
2023-08-20T10:19:48.216Z,1019.54
2023-08-20T10:20:52.728Z,1019.53
2023-08-20T10:21:57.196Z,1019.55
2023-08-20T10:23:01.579Z,1019.54
2023-08-20T10:24:06.016Z,1019.61
2023-08-20T10:25:10.491Z,1019.64
2023-08-20T10:26:14.912Z,1019.62
2023-08-20T10:27:19.449Z,1019.63
2023-08-20T10:28:23.837Z,1019.61
2023-08-20T10:29:28.363Z,1019.55
2023-08-20T10:30:32.734Z,1019.50
2023-08-20T10:31:37.209Z,1019.48
2023-08-20T10:32:47.785Z,1019.52
2023-08-20T10:33:50.770Z,1019.59
2023-08-20T10:34:55.273Z,1019.59
2023-08-20T10:35:59.847Z,1019.58
2023-08-20T10:37:04.186Z,1019.58
2023-08-20T10:38:08.726Z,1019.58
2023-08-20T10:39:13.160Z,1019.57
2023-08-20T10:40:20.598Z,1019.61
2023-08-20T10:41:24.246Z,1019.55
2023-08-20T10:42:28.705Z,1019.55
2023-08-20T10:43:33.067Z,1019.60
2023-08-20T10:44:37.510Z,1019.59
2023-08-20T10:45:41.979Z,1019.59
2023-08-20T10:46:46.466Z,1019.56
2023-08-20T10:47:50.974Z,1019.56
2023-08-20T10:48:55.449Z,1019.56
2023-08-20T10:49:59.907Z,1019.53
2023-08-20T10:51:04.297Z,1019.53
2023-08-20T10:52:08.830Z,1019.57
2023-08-20T10:53:13.250Z,1019.60
2023-08-20T10:54:17.649Z,1019.58
2023-08-20T10:55:22.153Z,1019.57
2023-08-20T10:56:26.611Z,1019.54
2023-08-20T10:57:31.125Z,1019.57
2023-08-20T10:58:35.507Z,1019.54
2023-08-20T10:59:40.033Z,1019.53
2023-08-20T11:00:44.443Z,1019.55
2023-08-20T11:01:48.957Z,1019.53
2023-08-20T11:02:53.507Z,1019.48
2023-08-20T11:03:57.833Z,1019.45
2023-08-20T11:05:02.215Z,1019.41
2023-08-20T11:06:06.807Z,1019.46
2023-08-20T11:07:11.179Z,1019.43
2023-08-20T11:08:15.615Z,1019.42
2023-08-20T11:09:20.182Z,1019.39
2023-08-20T11:10:24.657Z,1019.39
2023-08-20T11:11:29.048Z,1019.41
2023-08-20T11:12:33.573Z,1019.39
2023-08-20T11:13:37.917Z,1019.44
2023-08-20T11:14:42.719Z,1019.42
2023-08-20T11:15:47.032Z,1019.39
2023-08-20T11:16:51.612Z,1019.39
2023-08-20T11:17:56.009Z,1019.38
2023-08-20T11:19:00.502Z,1019.37
2023-08-20T11:20:13.906Z,1019.36
2023-08-20T11:21:09.455Z,1019.36
2023-08-20T11:22:13.859Z,1019.39
2023-08-20T11:23:18.332Z,1019.39
2023-08-20T11:24:22.829Z,1019.38
2023-08-20T11:25:27.402Z,1019.36
2023-08-20T11:26:31.858Z,1019.39
2023-08-20T11:27:36.553Z,1019.41
2023-08-20T11:28:40.674Z,1019.39
2023-08-20T11:29:45.232Z,1019.38
2023-08-20T11:30:49.715Z,1019.41
2023-08-20T11:31:54.086Z,1019.44
2023-08-20T11:32:58.668Z,1019.41
2023-08-20T11:34:02.979Z,1019.41
2023-08-20T11:35:07.432Z,1019.41
2023-08-20T11:36:11.895Z,1019.39
2023-08-20T11:37:16.314Z,1019.32
2023-08-20T11:38:20.704Z,1019.31
2023-08-20T11:39:25.223Z,1019.33
2023-08-20T11:40:29.779Z,1019.30
2023-08-20T11:41:34.308Z,1019.37
2023-08-20T11:42:38.797Z,1019.39
2023-08-20T11:43:43.236Z,1019.35
2023-08-20T11:44:47.768Z,1019.36
2023-08-20T11:45:52.151Z,1019.34
2023-08-20T11:46:56.765Z,1019.26
2023-08-20T11:48:01.356Z,1019.26
2023-08-20T11:49:05.704Z,1019.30
2023-08-20T11:50:10.177Z,1019.27
2023-08-20T11:51:14.561Z,1019.30
2023-08-20T11:52:33.085Z,1019.28
2023-08-20T11:53:36.308Z,1019.33
2023-08-20T11:54:40.710Z,1019.29
2023-08-20T11:55:45.208Z,1019.25
2023-08-20T11:56:49.778Z,1019.24
2023-08-20T11:57:54.290Z,1019.19
2023-08-20T11:58:58.676Z,1019.22
2023-08-20T12:00:03.259Z,1019.22
2023-08-20T12:01:07.699Z,1019.24
2023-08-20T12:02:12.408Z,1019.28
2023-08-20T12:03:17.036Z,1019.26
2023-08-20T12:04:24.379Z,1019.29
2023-08-20T12:05:28.062Z,1019.26
2023-08-20T12:06:32.441Z,1019.21
2023-08-20T12:07:37.187Z,1019.24
2023-08-20T12:08:41.457Z,1019.12
2023-08-20T12:09:46.176Z,1019.12
2023-08-20T12:10:50.381Z,1019.13
2023-08-20T12:11:54.833Z,1019.10
2023-08-20T12:12:59.457Z,1019.07
2023-08-20T12:14:03.817Z,1019.05
2023-08-20T12:15:09.356Z,1019.04
2023-08-20T12:16:13.486Z,1019.05
2023-08-20T12:17:17.930Z,1019.05
2023-08-20T12:18:22.356Z,1019.07
2023-08-20T12:19:26.864Z,1019.02
2023-08-20T12:20:31.445Z,1018.99
2023-08-20T12:21:35.842Z,1018.96
2023-08-20T12:22:40.278Z,1018.98
2023-08-20T12:23:44.832Z,1018.99
2023-08-20T12:24:49.315Z,1018.99
2023-08-20T12:25:53.791Z,1018.96
2023-08-20T12:27:04.324Z,1018.98
2023-08-20T12:28:07.494Z,1019.00
2023-08-20T12:29:11.866Z,1019.03
2023-08-20T12:30:16.269Z,1019.00
2023-08-20T12:31:20.764Z,1018.99
2023-08-20T12:32:26.192Z,1018.96
2023-08-20T12:33:30.270Z,1018.95
2023-08-20T12:34:34.715Z,1018.94
2023-08-20T12:35:39.283Z,1018.93
2023-08-20T12:36:43.778Z,1018.89
2023-08-20T12:37:48.315Z,1018.86
2023-08-20T12:38:52.699Z,1018.87
2023-08-20T12:39:57.220Z,1018.87
2023-08-20T12:41:01.844Z,1018.91
2023-08-20T12:42:20.375Z,1018.90
2023-08-20T12:43:23.566Z,1018.95
2023-08-20T12:44:28.079Z,1018.94
2023-08-20T12:45:32.538Z,1018.95
2023-08-20T12:46:37.151Z,1018.93
2023-08-20T12:47:44.574Z,1018.86
2023-08-20T12:48:48.226Z,1018.91
2023-08-20T12:49:52.644Z,1018.93
2023-08-20T12:50:57.110Z,1018.93
2023-08-20T12:52:01.550Z,1018.85
2023-08-20T12:53:09.116Z,1018.84
2023-08-20T12:54:12.906Z,1018.89
2023-08-20T12:55:17.316Z,1018.90
2023-08-20T12:56:21.974Z,1018.86
2023-08-20T12:57:26.478Z,1018.89
2023-08-20T12:58:30.945Z,1018.91
2023-08-20T12:59:35.447Z,1018.89
2023-08-20T13:00:39.953Z,1018.91
2023-08-20T13:01:44.556Z,1018.88
2023-08-20T13:02:49.110Z,1018.88
2023-08-20T13:03:53.752Z,1018.92
2023-08-20T13:04:58.093Z,1018.88
2023-08-20T13:06:02.672Z,1018.88
2023-08-20T13:07:10.118Z,1018.84
2023-08-20T13:08:13.823Z,1018.88